createdAt,value
2018-02-24T00:00:28.699Z,4.97
2018-02-24T00:02:58.925Z,4.87
2018-02-24T00:05:28.899Z,5.37
2018-02-24T00:07:59.097Z,4.93
2018-02-24T00:10:29.725Z,6.97
2018-02-24T00:13:00.834Z,4.63
2018-02-24T00:15:31.054Z,6.80
2018-02-24T00:18:01.282Z,6.90
2018-02-24T00:20:33.105Z,5.43
2018-02-24T00:23:03.635Z,9.27
2018-02-24T00:25:33.675Z,4.00
2018-02-24T00:28:04.303Z,5.70
2018-02-24T00:30:35.144Z,7.40
2018-02-24T00:33:05.257Z,5.00
2018-02-24T00:35:35.624Z,3.40
2018-02-24T00:38:05.839Z,4.80
2018-02-24T00:40:36.126Z,4.10
2018-02-24T00:43:06.427Z,7.40
2018-02-24T00:45:36.770Z,6.27
2018-02-24T00:48:07.417Z,6.93
2018-02-24T00:50:38.335Z,5.50
2018-02-24T00:53:08.642Z,5.57
2018-02-24T00:55:41.237Z,4.50
2018-02-24T00:58:11.515Z,3.67
2018-02-24T01:00:42.660Z,4.10
2018-02-24T01:03:13.717Z,4.37
2018-02-24T01:05:44.405Z,3.40
2018-02-24T01:08:15.479Z,8.47
2018-02-24T01:10:46.833Z,4.60
2018-02-24T01:13:16.923Z,5.00
2018-02-24T01:15:47.253Z,4.30
2018-02-24T01:18:18.118Z,6.80
2018-02-24T01:20:49.521Z,3.83
2018-02-24T01:23:20.661Z,5.03
2018-02-24T01:25:51.207Z,5.90
2018-02-24T01:28:21.406Z,5.73
2018-02-24T01:30:51.621Z,3.87
2018-02-24T01:33:21.650Z,6.80
2018-02-24T01:35:52.426Z,3.90
2018-02-24T01:38:23.530Z,5.70
2018-02-24T01:40:53.787Z,6.77
2018-02-24T01:43:24.868Z,5.70
2018-02-24T01:45:54.914Z,7.30
2018-02-24T01:48:25.765Z,5.27
2018-02-24T01:50:55.773Z,7.97
2018-02-24T01:53:25.570Z,3.77
2018-02-24T01:55:55.703Z,5.13
2018-02-24T01:58:26.014Z,5.87
2018-02-24T02:00:56.298Z,9.83
2018-02-24T02:03:27.088Z,7.90
2018-02-24T02:05:57.485Z,4.90
2018-02-24T02:08:27.532Z,7.30
2018-02-24T02:10:58.274Z,6.70
2018-02-24T02:13:28.462Z,6.10
2018-02-24T02:15:58.779Z,6.37
2018-02-24T02:18:29.080Z,12.60
2018-02-24T02:20:59.989Z,4.67
2018-02-24T02:23:30.075Z,6.83
2018-02-24T02:26:00.486Z,5.40
2018-02-24T02:28:30.626Z,6.10
2018-02-24T02:31:01.166Z,4.90
2018-02-24T02:33:31.898Z,6.47
2018-02-24T02:36:02.390Z,4.20
2018-02-24T02:38:32.451Z,4.63
2018-02-24T02:41:03.003Z,5.47
2018-02-24T02:43:34.321Z,6.57
2018-02-24T02:46:04.553Z,5.13
2018-02-24T02:48:34.558Z,5.43
2018-02-24T02:51:04.515Z,8.97
2018-02-24T02:53:35.449Z,7.10
2018-02-24T02:56:06.639Z,7.20
2018-02-24T02:58:36.898Z,10.00
2018-02-24T03:01:06.795Z,6.50
2018-02-24T03:03:37.012Z,4.67
2018-02-24T03:06:07.515Z,6.40
2018-02-24T03:08:37.742Z,7.70
2018-02-24T03:11:07.781Z,8.33
2018-02-24T03:13:38.037Z,9.40
2018-02-24T03:16:08.355Z,9.50
2018-02-24T03:18:38.548Z,10.60
2018-02-24T03:21:08.716Z,9.53
2018-02-24T03:23:40.843Z,11.20
2018-02-24T03:26:11.003Z,13.17
2018-02-24T03:28:41.742Z,11.60
2018-02-24T03:31:12.249Z,12.77
2018-02-24T03:33:42.258Z,10.03
2018-02-24T03:36:12.766Z,7.77
2018-02-24T03:38:42.943Z,8.90
2018-02-24T03:41:13.294Z,6.33
2018-02-24T03:43:43.575Z,8.27
2018-02-24T03:46:14.774Z,8.83
2018-02-24T03:48:45.771Z,5.33
2018-02-24T03:51:16.762Z,5.40
2018-02-24T03:53:46.875Z,5.93
2018-02-24T03:56:17.101Z,4.90
2018-02-24T03:58:47.196Z,5.03
2018-02-24T04:01:17.338Z,6.17
2018-02-24T04:03:47.661Z,3.80
2018-02-24T04:06:18.260Z,4.60
2018-02-24T04:08:48.509Z,6.53
2018-02-24T04:11:18.357Z,5.87
2018-02-24T04:13:49.367Z,4.77
2018-02-24T04:16:19.583Z,9.03
2018-02-24T04:18:49.605Z,5.63
2018-02-24T04:21:21.012Z,5.10
2018-02-24T04:23:51.222Z,6.53
2018-02-24T04:26:22.228Z,8.53
2018-02-24T04:28:52.417Z,7.37
2018-02-24T04:31:22.759Z,6.83
2018-02-24T04:33:53.334Z,6.17
2018-02-24T04:36:24.616Z,4.93
2018-02-24T04:38:55.577Z,6.90
2018-02-24T04:41:25.693Z,8.13
2018-02-24T04:43:55.845Z,9.53
2018-02-24T04:46:26.037Z,7.93
2018-02-24T04:48:56.874Z,7.90
2018-02-24T04:51:26.918Z,7.33
2018-02-24T04:53:56.991Z,10.43
2018-02-24T04:56:27.129Z,8.13
2018-02-24T04:58:56.850Z,5.90
2018-02-24T05:01:27.362Z,6.83
2018-02-24T05:03:57.697Z,5.03
2018-02-24T05:06:27.982Z,5.27
2018-02-24T05:08:58.323Z,3.10
2018-02-24T05:11:28.551Z,4.30
2018-02-24T05:13:58.951Z,2.63
2018-02-24T05:16:29.075Z,3.47
2018-02-24T05:18:59.430Z,12.40
2018-02-24T05:21:29.827Z,3.70
2018-02-24T05:23:59.874Z,4.20
2018-02-24T05:26:30.579Z,3.23
2018-02-24T05:29:00.924Z,4.97
2018-02-24T05:31:31.182Z,4.13
2018-02-24T05:34:01.349Z,3.10
2018-02-24T05:36:31.234Z,2.57
2018-02-24T05:39:02.630Z,3.93
2018-02-24T05:41:33.156Z,2.10
2018-02-24T05:44:03.472Z,2.57
2018-02-24T05:46:34.408Z,1.83
2018-02-24T05:49:05.004Z,3.17
2018-02-24T05:51:35.952Z,1.70
2018-02-24T05:54:06.625Z,1.73
2018-02-24T05:56:37.317Z,1.80
2018-02-24T05:59:09.101Z,2.73
2018-02-24T06:01:39.661Z,3.77
2018-02-24T06:04:10.426Z,2.90
2018-02-24T06:06:40.778Z,1.73
2018-02-24T06:09:11.212Z,3.73
2018-02-24T06:11:41.576Z,1.50
2018-02-24T06:14:11.798Z,1.90
2018-02-24T06:16:41.860Z,2.50
2018-02-24T06:19:12.593Z,1.90
2018-02-24T06:21:43.179Z,2.20
2018-02-24T06:24:13.494Z,1.97
2018-02-24T06:26:43.942Z,4.33
2018-02-24T06:29:13.991Z,4.53
2018-02-24T06:31:44.982Z,6.20
2018-02-24T06:34:15.038Z,6.67
2018-02-24T06:36:45.321Z,4.07
2018-02-24T06:39:15.541Z,3.20
2018-02-24T06:41:45.727Z,5.37
2018-02-24T06:44:16.175Z,3.03
2018-02-24T06:46:46.580Z,3.40
2018-02-24T06:49:16.858Z,4.33
2018-02-24T06:51:47.048Z,2.80
2018-02-24T06:54:17.285Z,2.73
2018-02-24T06:56:47.827Z,2.87
2018-02-24T06:59:18.066Z,6.23
2018-02-24T07:01:49.373Z,3.90
2018-02-24T07:04:19.843Z,2.73
2018-02-24T07:09:24.930Z,3.57
2018-02-24T07:11:54.581Z,8.67
2018-02-24T07:14:24.283Z,3.70
2018-02-24T07:16:53.994Z,4.43
2018-02-24T07:19:24.465Z,4.20
2018-02-24T07:21:55.865Z,5.20
2018-02-24T07:24:25.969Z,4.27
2018-02-24T07:26:56.110Z,4.20
2018-02-24T07:29:27.374Z,3.07
2018-02-24T07:31:57.530Z,6.33
2018-02-24T07:34:27.690Z,3.57
2018-02-24T07:36:57.678Z,3.47
2018-02-24T07:39:27.845Z,4.43
2018-02-24T07:41:58.563Z,4.97
2018-02-24T07:44:29.183Z,3.93
2018-02-24T07:47:00.339Z,4.47
2018-02-24T07:49:30.618Z,5.73
2018-02-24T07:52:00.870Z,2.83
2018-02-24T07:54:31.284Z,4.30
2018-02-24T07:57:01.246Z,3.80
2018-02-24T07:59:31.469Z,3.23
2018-02-24T08:02:02.897Z,7.33
2018-02-24T08:04:33.668Z,4.33
2018-02-24T08:07:04.660Z,6.17
2018-02-24T08:09:36.030Z,5.67
2018-02-24T08:12:07.075Z,5.17
2018-02-24T08:14:37.686Z,4.90
2018-02-24T08:17:08.409Z,6.30
2018-02-24T08:19:38.971Z,6.30
2018-02-24T08:22:15.754Z,5.77
2018-02-24T08:24:45.669Z,9.03
2018-02-24T08:27:15.810Z,9.50
2018-02-24T08:29:46.960Z,8.90
2018-02-24T08:32:17.885Z,16.40
2018-02-24T08:34:48.069Z,9.73
2018-02-24T08:37:18.081Z,6.17
2018-02-24T08:39:48.683Z,7.80
2018-02-24T08:42:19.512Z,4.37
2018-02-24T08:44:51.125Z,3.83
2018-02-24T08:47:21.327Z,4.67
2018-02-24T08:49:53.244Z,3.73
2018-02-24T08:52:23.930Z,8.30
2018-02-24T08:54:53.656Z,3.87
2018-02-24T08:57:23.910Z,7.33
2018-02-24T08:59:54.310Z,5.47
2018-02-24T09:02:24.498Z,8.30
2018-02-24T09:04:55.326Z,6.67
2018-02-24T09:07:25.506Z,5.00
2018-02-24T09:09:56.519Z,9.23
2018-02-24T09:12:26.963Z,4.63
2018-02-24T09:14:57.370Z,6.77
2018-02-24T09:17:27.566Z,8.13
2018-02-24T09:19:57.705Z,8.30
2018-02-24T09:22:28.151Z,6.87
2018-02-24T09:24:58.972Z,5.63
2018-02-24T09:27:29.327Z,5.67
2018-02-24T09:29:59.513Z,4.93
2018-02-24T09:32:30.176Z,6.47
2018-02-24T09:35:00.164Z,5.13
2018-02-24T09:37:30.243Z,5.00
2018-02-24T09:40:00.428Z,5.87
2018-02-24T09:42:30.426Z,3.83
2018-02-24T09:45:00.853Z,7.90
2018-02-24T09:47:32.082Z,7.20
2018-02-24T09:50:02.915Z,5.63
2018-02-24T09:52:33.437Z,4.87
2018-02-24T09:55:03.207Z,7.00
2018-02-24T09:57:34.146Z,10.57
2018-02-24T10:00:05.159Z,8.50
2018-02-24T10:02:34.996Z,8.10
2018-02-24T10:05:06.006Z,8.07
2018-02-24T10:07:36.091Z,5.87
2018-02-24T10:10:06.282Z,7.10
2018-02-24T10:12:37.922Z,8.10
2018-02-24T10:15:08.139Z,7.50
2018-02-24T10:17:38.308Z,9.17
2018-02-24T10:20:08.650Z,9.70
2018-02-24T10:22:38.468Z,9.63
2018-02-24T10:25:08.490Z,10.13
2018-02-24T10:27:38.922Z,14.27
2018-02-24T10:30:09.050Z,16.60
2018-02-24T10:32:39.153Z,16.17
2018-02-24T10:35:09.658Z,15.37
2018-02-24T10:37:39.578Z,12.37
2018-02-24T10:40:10.014Z,9.87
2018-02-24T10:42:40.045Z,10.60
2018-02-24T10:45:10.326Z,10.30
2018-02-24T10:47:40.452Z,11.80
2018-02-24T10:50:10.707Z,7.43
2018-02-24T10:52:42.075Z,9.40
2018-02-24T10:55:13.882Z,9.07
2018-02-24T10:57:44.041Z,8.47
2018-02-24T11:00:14.246Z,7.40
2018-02-24T11:02:45.131Z,3.73
2018-02-24T11:05:16.645Z,5.90
2018-02-24T11:07:47.728Z,3.83
2018-02-24T11:10:18.030Z,5.07
2018-02-24T11:12:48.745Z,3.90
2018-02-24T11:15:19.142Z,4.63
2018-02-24T11:17:49.628Z,4.30
2018-02-24T11:20:19.905Z,2.77
2018-02-24T11:22:49.677Z,4.27
2018-02-24T11:25:20.711Z,1.60
2018-02-24T11:27:51.444Z,3.87
2018-02-24T11:30:22.346Z,5.23
2018-02-24T11:32:52.461Z,8.70
2018-02-24T11:35:22.997Z,2.30
2018-02-24T11:37:53.942Z,6.90
2018-02-24T11:40:24.909Z,3.10
2018-02-24T11:42:55.980Z,5.10
2018-02-24T11:45:26.183Z,7.27
2018-02-24T11:47:57.058Z,7.13
2018-02-24T11:50:27.393Z,3.27
2018-02-24T11:52:57.435Z,4.97
2018-02-24T11:55:27.422Z,3.73
2018-02-24T11:57:57.603Z,3.13
2018-02-24T12:00:28.057Z,2.97
2018-02-24T12:02:57.905Z,4.20
2018-02-24T12:05:28.066Z,3.27
2018-02-24T12:07:58.865Z,5.77
2018-02-24T12:10:28.762Z,4.13
2018-02-24T12:12:59.131Z,5.87
2018-02-24T12:15:30.142Z,10.13
2018-02-24T12:18:00.277Z,5.20
2018-02-24T12:20:30.546Z,6.20
2018-02-24T12:23:00.652Z,5.57
2018-02-24T12:25:31.328Z,4.43
2018-02-24T12:28:01.470Z,8.63
2018-02-24T12:30:31.849Z,7.40
2018-02-24T12:33:01.689Z,4.23
2018-02-24T12:35:32.109Z,6.77
2018-02-24T12:38:02.206Z,10.57
2018-02-24T12:40:32.267Z,19.33
2018-02-24T12:43:02.322Z,17.13
2018-02-24T12:45:32.204Z,13.20
2018-02-24T12:48:02.978Z,10.53
2018-02-24T12:50:33.326Z,7.90
2018-02-24T12:53:03.976Z,10.20
2018-02-24T12:55:34.393Z,7.23
2018-02-24T12:58:04.507Z,8.93
2018-02-24T13:00:35.493Z,7.47
2018-02-24T13:03:06.546Z,9.00
2018-02-24T13:05:37.743Z,10.17
2018-02-24T13:08:07.996Z,8.80
2018-02-24T13:10:38.395Z,8.60
2018-02-24T13:13:08.622Z,20.77
2018-02-24T13:15:38.773Z,8.67
2018-02-24T13:18:09.474Z,10.83
2018-02-24T13:20:39.573Z,9.83
2018-02-24T13:23:09.720Z,12.70
2018-02-24T13:25:39.732Z,15.80
2018-02-24T13:28:09.950Z,14.67
2018-02-24T13:30:41.028Z,11.37
2018-02-24T13:33:12.138Z,10.03
2018-02-24T13:35:42.765Z,19.13
2018-02-24T13:38:13.094Z,30.33
2018-02-24T13:40:43.411Z,30.77
2018-02-24T13:43:13.634Z,21.80
2018-02-24T13:45:43.477Z,17.30
2018-02-24T13:48:13.702Z,20.40
2018-02-24T13:50:44.541Z,13.67
2018-02-24T13:53:15.389Z,14.40
2018-02-24T13:55:46.524Z,13.00
2018-02-24T13:58:17.251Z,9.60
2018-02-24T14:00:47.373Z,8.67
2018-02-24T14:03:18.070Z,10.23
2018-02-24T14:05:48.122Z,9.60
2018-02-24T14:08:19.145Z,7.40
2018-02-24T14:10:49.335Z,7.00
2018-02-24T14:13:19.552Z,5.53
2018-02-24T14:15:49.902Z,8.30
2018-02-24T14:18:20.019Z,10.53
2018-02-24T14:20:50.514Z,10.13
2018-02-24T14:23:20.786Z,7.07
2018-02-24T14:25:52.059Z,10.13
2018-02-24T14:28:23.167Z,10.37
2018-02-24T14:30:54.656Z,7.00
2018-02-24T14:33:26.241Z,7.03
2018-02-24T14:35:57.710Z,9.30
2018-02-24T14:38:27.637Z,14.40
2018-02-24T14:40:58.052Z,14.57
2018-02-24T14:43:28.220Z,12.07
2018-02-24T14:45:59.905Z,15.20
2018-02-24T14:48:30.484Z,10.57
2018-02-24T14:51:00.678Z,8.60
2018-02-24T14:53:30.929Z,12.20
2018-02-24T14:56:00.860Z,10.77
2018-02-24T14:58:31.315Z,19.83
2018-02-24T15:01:01.670Z,13.67
2018-02-24T15:03:33.042Z,10.43
2018-02-24T15:06:03.809Z,15.37
2018-02-24T15:08:35.855Z,21.10
2018-02-24T15:11:06.707Z,19.73
2018-02-24T15:13:37.105Z,18.10
2018-02-24T15:16:06.842Z,16.70
2018-02-24T15:18:38.271Z,21.77
2018-02-24T15:21:08.554Z,15.30
2018-02-24T15:23:39.289Z,14.27
2018-02-24T15:26:09.038Z,17.70
2018-02-24T15:28:39.239Z,23.07
2018-02-24T15:31:09.103Z,29.20
2018-02-24T15:33:39.139Z,19.60
2018-02-24T15:36:09.335Z,28.23
2018-02-24T15:38:40.214Z,31.33
2018-02-24T15:41:10.436Z,24.17
2018-02-24T15:43:40.735Z,27.73
2018-02-24T15:46:11.081Z,23.73
2018-02-24T15:48:41.164Z,33.10
2018-02-24T15:51:13.382Z,24.30
2018-02-24T15:53:44.493Z,19.73
2018-02-24T15:56:17.860Z,20.50
2018-02-24T15:58:49.563Z,22.13
2018-02-24T16:01:19.994Z,21.27
2018-02-24T16:03:50.647Z,22.17
2018-02-24T16:06:21.711Z,19.17
2018-02-24T16:08:52.846Z,20.57
2018-02-24T16:11:24.211Z,24.90
2018-02-24T16:13:55.106Z,22.80
2018-02-24T16:16:25.767Z,21.30
2018-02-24T16:18:56.398Z,23.03
2018-02-24T16:21:27.805Z,18.80
2018-02-24T16:23:58.126Z,16.97
2018-02-24T16:26:29.238Z,18.90
2018-02-24T16:29:00.275Z,24.90
2018-02-24T16:31:30.113Z,20.57
2018-02-24T16:34:00.303Z,15.00
2018-02-24T16:36:31.290Z,16.30
2018-02-24T16:39:01.701Z,17.87
2018-02-24T16:41:31.760Z,13.70
2018-02-24T16:44:02.066Z,16.40
2018-02-24T16:46:32.697Z,17.27
2018-02-24T16:49:03.461Z,16.83
2018-02-24T16:51:34.199Z,19.33
2018-02-24T16:54:04.383Z,17.37
2018-02-24T16:56:34.895Z,11.70
2018-02-24T16:59:05.252Z,15.57
2018-02-24T17:01:35.470Z,15.13
2018-02-24T17:04:05.978Z,23.00
2018-02-24T17:06:36.158Z,15.90
2018-02-24T17:09:07.153Z,18.27
2018-02-24T17:11:37.493Z,13.20
2018-02-24T17:14:07.661Z,19.83
2018-02-24T17:16:37.871Z,15.50
2018-02-24T17:19:08.874Z,16.73
2018-02-24T17:21:40.817Z,19.00
2018-02-24T17:24:11.024Z,18.40
2018-02-24T17:26:41.210Z,17.43
2018-02-24T17:29:12.387Z,14.00
2018-02-24T17:31:42.542Z,17.63
2018-02-24T17:34:12.965Z,15.33
2018-02-24T17:36:43.183Z,19.50
2018-02-24T17:39:13.798Z,17.10
2018-02-24T17:41:43.598Z,22.33
2018-02-24T17:44:13.951Z,13.90
2018-02-24T17:46:44.056Z,15.90
2018-02-24T17:49:14.417Z,16.57
2018-02-24T17:51:44.955Z,14.50
2018-02-24T17:54:16.222Z,16.80
2018-02-24T17:56:46.692Z,24.50
2018-02-24T17:59:16.881Z,17.30
2018-02-24T18:01:47.791Z,18.33
2018-02-24T18:04:19.073Z,15.40
2018-02-24T18:06:49.495Z,15.33
2018-02-24T18:09:19.554Z,15.43
2018-02-24T18:11:50.536Z,15.47
2018-02-24T18:14:21.513Z,20.60
2018-02-24T18:16:52.725Z,21.03
2018-02-24T18:19:23.115Z,15.13
2018-02-24T18:21:53.419Z,14.33
2018-02-24T18:24:23.587Z,17.70
2018-02-24T18:26:54.477Z,17.23
2018-02-24T18:29:24.936Z,15.27
2018-02-24T18:31:56.025Z,16.70
2018-02-24T18:34:26.440Z,16.67
2018-02-24T18:36:56.743Z,18.77
2018-02-24T18:39:28.148Z,19.80
2018-02-24T18:41:58.692Z,17.60
2018-02-24T18:44:30.021Z,12.83
2018-02-24T18:47:00.622Z,14.63
2018-02-24T18:49:30.669Z,17.97
2018-02-24T18:52:00.792Z,14.10
2018-02-24T18:54:31.107Z,14.60
2018-02-24T18:57:01.267Z,20.77
2018-02-24T18:59:31.978Z,10.20
2018-02-24T19:02:02.310Z,17.30
2018-02-24T19:04:32.025Z,11.50
2018-02-24T19:07:02.271Z,16.30
2018-02-24T19:09:33.339Z,17.87
2018-02-24T19:12:03.829Z,14.73
2018-02-24T19:14:35.115Z,13.40
2018-02-24T19:17:05.453Z,11.27
2018-02-24T19:19:35.962Z,14.30
2018-02-24T19:22:06.304Z,13.37
2018-02-24T19:24:37.034Z,19.53
2018-02-24T19:27:07.378Z,13.43
2018-02-24T19:29:37.755Z,11.93
2018-02-24T19:32:08.744Z,12.07
2018-02-24T19:34:38.858Z,15.90
2018-02-24T19:37:09.258Z,20.37
2018-02-24T19:39:39.608Z,17.57
2018-02-24T19:42:09.871Z,17.73
2018-02-24T19:44:40.911Z,15.00
2018-02-24T19:47:11.664Z,22.03
2018-02-24T19:49:42.045Z,17.03
2018-02-24T19:52:12.299Z,17.20
2018-02-24T19:54:43.118Z,16.43
2018-02-24T19:57:13.036Z,19.80
2018-02-24T19:59:43.233Z,15.60
2018-02-24T20:02:13.242Z,22.67
2018-02-24T20:04:44.609Z,17.03
2018-02-24T20:07:14.814Z,20.90
2018-02-24T20:09:44.663Z,16.23
2018-02-24T20:12:14.746Z,19.70
2018-02-24T20:14:44.853Z,18.43
2018-02-24T20:17:14.994Z,16.03
2018-02-24T20:19:45.102Z,13.00
2018-02-24T20:22:15.230Z,14.03
2018-02-24T20:24:45.548Z,17.50
2018-02-24T20:27:15.648Z,21.77
2018-02-24T20:29:45.916Z,19.73
2018-02-24T20:32:16.390Z,16.07
2018-02-24T20:34:46.540Z,17.70
2018-02-24T20:37:16.484Z,17.20
2018-02-24T20:39:46.670Z,20.13
2018-02-24T20:42:16.770Z,17.60
2018-02-24T20:44:47.054Z,21.60
2018-02-24T20:47:16.838Z,21.70
2018-02-24T20:49:46.536Z,15.53
2018-02-24T20:52:16.534Z,19.13
2018-02-24T20:54:47.024Z,20.07
2018-02-24T20:57:18.144Z,18.10
2018-02-24T20:59:48.251Z,16.33
2018-02-24T21:02:18.328Z,22.10
2018-02-24T21:04:48.684Z,18.03
2018-02-24T21:07:18.874Z,16.97
2018-02-24T21:09:49.035Z,18.07
2018-02-24T21:12:18.862Z,23.60
2018-02-24T21:14:48.850Z,27.40
2018-02-24T21:17:20.305Z,16.00
2018-02-24T21:19:50.532Z,29.17
2018-02-24T21:22:20.442Z,15.23
2018-02-24T21:24:50.699Z,18.07
2018-02-24T21:27:21.698Z,21.17
2018-02-24T21:29:52.023Z,18.67
2018-02-24T21:32:22.965Z,26.53
2018-02-24T21:34:53.667Z,21.63
2018-02-24T21:37:23.712Z,28.63
2018-02-24T21:39:54.037Z,19.73
2018-02-24T21:42:23.968Z,14.90
2018-02-24T21:44:54.135Z,21.33
2018-02-24T21:47:24.150Z,19.73
2018-02-24T21:49:55.318Z,19.87
2018-02-24T21:52:25.489Z,20.87
2018-02-24T21:54:55.992Z,12.50
2018-02-24T21:57:26.299Z,20.87
2018-02-24T21:59:56.721Z,18.90
2018-02-24T22:02:27.062Z,12.77
2018-02-24T22:04:57.234Z,16.03
2018-02-24T22:07:28.056Z,17.10
2018-02-24T22:09:58.659Z,31.10
2018-02-24T22:12:29.170Z,16.83
2018-02-24T22:14:59.314Z,14.47
2018-02-24T22:17:29.053Z,17.43
2018-02-24T22:20:00.398Z,21.73
2018-02-24T22:22:31.760Z,24.67
2018-02-24T22:25:03.297Z,14.80
2018-02-24T22:27:34.445Z,18.53
2018-02-24T22:30:04.859Z,15.23
2018-02-24T22:32:35.587Z,18.53
2018-02-24T22:35:06.625Z,17.30
2018-02-24T22:37:36.698Z,18.43
2018-02-24T22:40:07.032Z,15.30
2018-02-24T22:42:37.227Z,22.60
2018-02-24T22:45:07.623Z,13.47
2018-02-24T22:47:42.986Z,16.77
2018-02-24T22:50:14.002Z,16.03
2018-02-24T22:52:44.286Z,17.07
2018-02-24T22:55:14.456Z,23.17
2018-02-24T22:57:45.451Z,22.60
2018-02-24T23:00:16.713Z,22.10
2018-02-24T23:02:47.796Z,22.57
2018-02-24T23:05:19.717Z,17.30
2018-02-24T23:07:50.367Z,17.53
2018-02-24T23:10:20.675Z,19.73
2018-02-24T23:12:52.254Z,19.77
2018-02-24T23:15:22.982Z,19.07
2018-02-24T23:17:53.315Z,15.90
2018-02-24T23:20:24.938Z,19.40
2018-02-24T23:22:55.067Z,17.70
2018-02-24T23:25:25.556Z,19.70
2018-02-24T23:27:55.781Z,19.50
2018-02-24T23:30:26.208Z,16.37
2018-02-24T23:32:56.469Z,17.03
2018-02-24T23:35:26.599Z,15.87
2018-02-24T23:37:56.789Z,19.67
2018-02-24T23:40:27.181Z,18.67
2018-02-24T23:42:57.955Z,15.70
2018-02-24T23:45:28.073Z,16.17
2018-02-24T23:47:58.497Z,16.33
2018-02-24T23:50:28.926Z,14.33
2018-02-24T23:52:59.395Z,21.63
2018-02-24T23:55:31.974Z,12.93
2018-02-24T23:58:02.707Z,22.27
